Time;durP1;ratioP1;P1;durP2;ratioP2;P2;SDS_P1;SDS_P2;PMS_P1;PMS_P2;Temp;Humidity;BMP_temperature;BMP_pressure;BME280_temperature;BME280_humidity;BME280_pressure;Samples;Min_cycle;Max_cycle;Signal;HPM_P1;HPM_P2
2022/10/23 00:01:27;;;;;;;0.13;0.00;;;;;;;;;;5074284;28;20438;-76
2022/10/23 00:03:55;;;;;;;0.00;0.00;;;;;;;;;;5092906;28;20063;-75
2022/10/23 00:06:22;;;;;;;8.55;7.95;;;;;;;;;;5093172;28;20428;-75
2022/10/23 00:08:49;;;;;;;0.52;0.43;;;;;;;;;;5092999;28;20083;-75
2022/10/23 00:11:20;;;;;;;2.33;2.20;;;;;;;;;;5093156;28;20103;-75
2022/10/23 00:13:47;;;;;;;0.00;0.00;;;;;;;;;;5093194;28;20429;-76
2022/10/23 00:16:14;;;;;;;0.77;0.50;;;;;;;;;;5093697;28;20084;-76
2022/10/23 00:18:40;;;;;;;0.00;0.00;;;;;;;;;;5093080;28;20478;-75
2022/10/23 00:21:09;;;;;;;5.60;5.07;;;;;;;;;;5074790;28;20470;-75
2022/10/23 00:23:35;;;;;;;0.00;0.00;;;;;;;;;;5080980;28;20059;-75
2022/10/23 00:26:02;;;;;;;8.00;2.65;;;;;;;;;;5069455;28;20069;-75
2022/10/23 00:28:28;;;;;;;0.00;0.00;;;;;;;;;;5062971;28;20111;-75
2022/10/23 00:30:54;;;;;;;0.93;0.15;;;;;;;;;;5075366;28;20494;-76
2022/10/23 00:33:21;;;;;;;0.00;0.00;;;;;;;;;;5088759;28;20028;-75
2022/10/23 00:35:47;;;;;;;2.63;2.22;;;;;;;;;;5075545;28;20078;-75
2022/10/23 00:38:13;;;;;;;0.00;0.00;;;;;;;;;;5085264;28;20028;-75
2022/10/23 00:40:41;;;;;;;0.00;0.00;;;;;;;;;;5115169;28;20043;-75
2022/10/23 00:43:10;;;;;;;0.95;0.75;;;;;;;;;;5127964;27;20043;-75
2022/10/23 00:45:36;;;;;;;4.18;1.08;;;;;;;;;;5132253;27;20033;-75
2022/10/23 00:48:03;;;;;;;0.00;0.00;;;;;;;;;;5150258;27;20257;-75
2022/10/23 00:50:30;;;;;;;0.20;0.20;;;;;;;;;;5094642;28;20041;-75
2022/10/23 00:52:58;;;;;;;1.67;1.55;;;;;;;;;;5096444;28;20027;-75
2022/10/23 00:55:25;;;;;;;0.00;0.00;;;;;;;;;;5088021;28;20034;-75
2022/10/23 00:57:52;;;;;;;0.00;0.00;;;;;;;;;;5087382;28;20035;-76
2022/10/23 01:00:23;;;;;;;1.17;1.17;;;;;;;;;;5093477;28;20166;-76
2022/10/23 01:02:50;;;;;;;0.00;0.00;;;;;;;;;;5115649;28;20054;-76
2022/10/23 01:05:16;;;;;;;0.20;0.20;;;;;;;;;;5116396;28;20481;-76
2022/10/23 01:07:43;;;;;;;0.00;0.00;;;;;;;;;;5092548;28;20031;-76
2022/10/23 01:10:20;;;;;;;0.00;0.00;;;;;;;;;;5084619;28;20020;-76
2022/10/23 01:12:51;;;;;;;0.00;0.00;;;;;;;;;;5120422;28;20073;-76
2022/10/23 01:15:44;;;;;;;0.00;0.00;;;;;;;;;;5114269;28;20035;-76
2022/10/23 01:18:10;;;;;;;0.00;0.00;;;;;;;;;;5106234;28;20246;-77
2022/10/23 01:20:36;;;;;;;0.10;0.10;;;;;;;;;;5137134;28;20028;-76
2022/10/23 01:23:22;;;;;;;0.00;0.00;;;;;;;;;;5107190;28;20024;-76
2022/10/23 01:25:57;;;;;;;0.00;0.00;;;;;;;;;;5125111;28;20486;-77
2022/10/23 01:28:29;;;;;;;2.13;2.03;;;;;;;;;;5114563;28;20496;-76
2022/10/23 01:30:57;;;;;;;0.10;0.10;;;;;;;;;;5113264;28;20039;-77
2022/10/23 01:33:29;;;;;;;0.00;0.00;;;;;;;;;;5098143;28;20193;-76
2022/10/23 01:36:01;;;;;;;0.00;0.00;;;;;;;;;;5115506;28;20032;-76
2022/10/23 01:38:31;;;;;;;0.00;0.00;;;;;;;;;;5115618;28;20051;-76
2022/10/23 01:41:07;;;;;;;0.00;0.00;;;;;;;;;;5097069;28;20023;-76
2022/10/23 01:43:49;;;;;;;0.30;0.30;;;;;;;;;;5096446;28;20564;-76
2022/10/23 01:46:20;;;;;;;0.00;0.00;;;;;;;;;;5096984;28;20119;-76
2022/10/23 01:48:52;;;;;;;0.00;0.00;;;;;;;;;;5114627;28;20023;-76
2022/10/23 01:51:20;;;;;;;13.68;7.78;;;;;;;;;;5098658;28;20535;-75
2022/10/23 01:53:48;;;;;;;0.95;0.68;;;;;;;;;;5097993;28;20031;-75
2022/10/23 01:56:17;;;;;;;0.00;0.00;;;;;;;;;;5099939;28;20039;-75
2022/10/23 01:58:48;;;;;;;0.00;0.00;;;;;;;;;;5102889;28;20028;-75
2022/10/23 02:01:18;;;;;;;0.00;0.00;;;;;;;;;;5088881;28;20051;-78
2022/10/23 02:03:45;;;;;;;4.15;3.72;;;;;;;;;;5109035;28;20087;-77
2022/10/23 02:06:13;;;;;;;0.00;0.00;;;;;;;;;;5127642;28;20031;-76
2022/10/23 02:08:42;;;;;;;0.47;0.30;;;;;;;;;;5124178;28;20012;-77
2022/10/23 02:11:12;;;;;;;0.00;0.00;;;;;;;;;;5101714;28;20028;-77
2022/10/23 02:13:42;;;;;;;6.88;5.97;;;;;;;;;;5076798;28;20056;-77
2022/10/23 02:16:08;;;;;;;0.00;0.00;;;;;;;;;;5094546;28;20020;-77
2022/10/23 02:18:48;;;;;;;0.00;0.00;;;;;;;;;;5076429;28;20122;-77
2022/10/23 02:21:30;;;;;;;0.00;0.00;;;;;;;;;;5076622;28;20115;-77
2022/10/23 02:24:01;;;;;;;5.85;0.30;;;;;;;;;;5086472;28;20434;-77
2022/10/23 02:26:31;;;;;;;0.47;0.47;;;;;;;;;;5094298;28;20024;-77
2022/10/23 02:29:10;;;;;;;2.40;0.70;;;;;;;;;;5112031;28;20063;-78
2022/10/23 02:31:36;;;;;;;0.00;0.00;;;;;;;;;;5096436;28;20123;-76
2022/10/23 02:34:03;;;;;;;0.00;0.00;;;;;;;;;;5114650;28;20020;-76
2022/10/23 02:36:29;;;;;;;0.00;0.00;;;;;;;;;;5114382;28;20027;-76
2022/10/23 02:39:04;;;;;;;0.00;0.00;;;;;;;;;;5095119;28;20028;-75
2022/10/23 02:41:30;;;;;;;0.00;0.00;;;;;;;;;;5114257;28;20043;-76
2022/10/23 02:43:56;;;;;;;0.00;0.00;;;;;;;;;;5095996;28;20082;-76
2022/10/23 02:46:29;;;;;;;0.00;0.00;;;;;;;;;;5114136;28;20035;-77
2022/10/23 02:49:11;;;;;;;0.10;0.10;;;;;;;;;;5113877;28;20023;-77
2022/10/23 02:51:44;;;;;;;0.10;0.10;;;;;;;;;;5067504;28;20040;-78
2022/10/23 02:54:18;;;;;;;0.00;0.00;;;;;;;;;;5093970;28;20020;-77
2022/10/23 02:57:14;;;;;;;0.00;0.00;;;;;;;;;;5080168;28;20110;-78
2022/10/23 02:59:46;;;;;;;0.10;0.10;;;;;;;;;;5080293;28;20036;-78
2022/10/23 03:02:15;;;;;;;0.00;0.00;;;;;;;;;;5076594;28;20374;-78
2022/10/23 03:04:42;;;;;;;3.08;2.92;;;;;;;;;;5102947;28;20373;-78
2022/10/23 03:07:15;;;;;;;0.00;0.00;;;;;;;;;;5090417;28;20028;-78
2022/10/23 03:09:41;;;;;;;2.55;2.42;;;;;;;;;;5105176;28;20031;-79
2022/10/23 03:12:07;;;;;;;0.15;0.15;;;;;;;;;;5114046;28;20031;-79
2022/10/23 03:14:34;;;;;;;0.00;0.00;;;;;;;;;;5109868;28;20038;-79
2022/10/23 03:17:00;;;;;;;0.00;0.00;;;;;;;;;;5091123;28;20505;-77
2022/10/23 03:19:26;;;;;;;0.40;0.40;;;;;;;;;;5105123;27;20031;-77
2022/10/23 03:21:53;;;;;;;0.20;0.20;;;;;;;;;;5105066;28;20028;-77
2022/10/23 03:24:19;;;;;;;0.00;0.00;;;;;;;;;;5103875;28;20035;-77
2022/10/23 03:26:45;;;;;;;0.10;0.10;;;;;;;;;;5092053;28;20024;-78
2022/10/23 03:29:12;;;;;;;0.22;0.20;;;;;;;;;;5109436;28;20042;-79
2022/10/23 03:31:38;;;;;;;0.00;0.00;;;;;;;;;;5095780;28;20024;-80
2022/10/23 03:34:09;;;;;;;2.45;0.10;;;;;;;;;;5090638;28;20039;-79
2022/10/23 03:36:36;;;;;;;0.00;0.00;;;;;;;;;;5091228;28;20032;-78
2022/10/23 03:39:03;;;;;;;0.00;0.00;;;;;;;;;;5113839;28;20474;-79
2022/10/23 03:41:29;;;;;;;0.00;0.00;;;;;;;;;;5114177;28;20066;-78
2022/10/23 03:43:58;;;;;;;0.00;0.00;;;;;;;;;;5088606;28;20040;-78
2022/10/23 03:46:25;;;;;;;1.30;1.25;;;;;;;;;;5091968;28;20145;-77
2022/10/23 03:48:51;;;;;;;4.00;0.47;;;;;;;;;;5091734;28;20024;-78
2022/10/23 03:51:17;;;;;;;0.10;0.10;;;;;;;;;;5093385;28;20020;-79
2022/10/23 03:53:44;;;;;;;0.00;0.00;;;;;;;;;;5095661;28;20045;-77
2022/10/23 03:56:10;;;;;;;0.10;0.05;;;;;;;;;;5123868;27;20028;-77
2022/10/23 03:58:36;;;;;;;0.00;0.00;;;;;;;;;;5135787;27;20031;-77
2022/10/23 04:01:03;;;;;;;1.65;1.20;;;;;;;;;;5097655;28;20020;-79
2022/10/23 04:03:29;;;;;;;0.00;0.00;;;;;;;;;;5114720;28;20509;-78
2022/10/23 04:05:55;;;;;;;0.15;0.15;;;;;;;;;;5095085;28;20027;-77
2022/10/23 04:08:22;;;;;;;0.00;0.00;;;;;;;;;;5113381;28;20026;-78
2022/10/23 04:10:48;;;;;;;1.65;0.40;;;;;;;;;;5113043;28;20027;-77
2022/10/23 04:13:14;;;;;;;0.00;0.00;;;;;;;;;;5093883;28;20020;-77
2022/10/23 04:15:41;;;;;;;0.52;0.52;;;;;;;;;;5095587;28;20038;-77
2022/10/23 04:18:07;;;;;;;2.00;0.43;;;;;;;;;;5108369;28;20027;-77
2022/10/23 04:20:33;;;;;;;0.00;0.00;;;;;;;;;;5117357;28;20478;-78
2022/10/23 04:22:59;;;;;;;0.00;0.00;;;;;;;;;;5117148;28;20059;-77
2022/10/23 04:25:26;;;;;;;0.00;0.00;;;;;;;;;;5117201;28;20024;-77
2022/10/23 04:27:52;;;;;;;1.55;0.40;;;;;;;;;;5117186;28;20031;-78
2022/10/23 04:30:18;;;;;;;0.00;0.00;;;;;;;;;;5091019;28;20028;-76
2022/10/23 04:32:45;;;;;;;0.10;0.10;;;;;;;;;;5115594;28;20462;-78
2022/10/23 04:35:11;;;;;;;0.00;0.00;;;;;;;;;;5103952;28;20038;-77
2022/10/23 04:37:37;;;;;;;0.00;0.00;;;;;;;;;;5117386;28;20036;-77
2022/10/23 04:40:04;;;;;;;0.00;0.00;;;;;;;;;;5101260;28;20024;-77
2022/10/23 04:42:30;;;;;;;0.98;0.80;;;;;;;;;;5100385;28;20047;-76
2022/10/23 04:44:56;;;;;;;1.25;0.63;;;;;;;;;;5109788;27;20028;-77
2022/10/23 04:47:23;;;;;;;1.65;1.38;;;;;;;;;;5116897;28;20023;-77
2022/10/23 04:49:50;;;;;;;0.20;0.20;;;;;;;;;;5097460;28;20498;-77
2022/10/23 04:52:16;;;;;;;0.95;0.95;;;;;;;;;;5090370;28;20107;-77
2022/10/23 04:54:42;;;;;;;7.97;0.22;;;;;;;;;;5097917;28;20016;-77
2022/10/23 04:57:09;;;;;;;0.00;0.00;;;;;;;;;;5116443;28;20166;-85
2022/10/23 04:59:35;;;;;;;2.90;1.08;;;;;;;;;;5098081;28;20084;-82
2022/10/23 05:02:01;;;;;;;4.55;4.20;;;;;;;;;;5113713;28;20054;-79
2022/10/23 05:04:28;;;;;;;0.10;0.10;;;;;;;;;;5116165;28;20099;-77
2022/10/23 05:06:54;;;;;;;2.35;0.55;;;;;;;;;;5116030;28;20420;-79
2022/10/23 05:09:21;;;;;;;0.00;0.00;;;;;;;;;;5116558;28;20024;-77
2022/10/23 05:11:47;;;;;;;0.30;0.30;;;;;;;;;;5085749;28;20031;-78
2022/10/23 05:14:14;;;;;;;0.10;0.10;;;;;;;;;;5106954;28;20476;-78
2022/10/23 05:16:43;;;;;;;0.00;0.00;;;;;;;;;;5077866;28;20482;-79
2022/10/23 05:19:10;;;;;;;0.00;0.00;;;;;;;;;;5095828;28;20039;-79
2022/10/23 05:21:37;;;;;;;4.10;1.30;;;;;;;;;;5110404;28;20030;-79
2022/10/23 05:24:04;;;;;;;0.00;0.00;;;;;;;;;;5108961;28;20382;-79
2022/10/23 05:26:31;;;;;;;0.00;0.00;;;;;;;;;;5103519;28;20409;-79
2022/10/23 05:28:57;;;;;;;0.00;0.00;;;;;;;;;;5115771;28;20026;-77
2022/10/23 05:31:24;;;;;;;0.00;0.00;;;;;;;;;;5109464;28;20474;-78
2022/10/23 05:33:52;;;;;;;1.40;0.40;;;;;;;;;;5097548;28;20023;-78
2022/10/23 05:36:18;;;;;;;1.65;0.55;;;;;;;;;;5096888;28;20066;-78
2022/10/23 05:38:45;;;;;;;2.80;2.55;;;;;;;;;;5109888;28;20098;-78
2022/10/23 05:41:11;;;;;;;0.00;0.00;;;;;;;;;;5110344;28;20015;-78
2022/10/23 05:43:38;;;;;;;2.17;2.08;;;;;;;;;;5087198;28;20039;-78
2022/10/23 05:46:05;;;;;;;0.20;0.20;;;;;;;;;;5109418;28;20584;-78
2022/10/23 05:48:31;;;;;;;0.00;0.00;;;;;;;;;;5109547;28;20094;-78
2022/10/23 05:51:08;;;;;;;0.00;0.00;;;;;;;;;;5091245;28;20019;-79
2022/10/23 05:53:35;;;;;;;0.00;0.00;;;;;;;;;;5097235;28;20115;-79
2022/10/23 05:56:05;;;;;;;1.10;1.10;;;;;;;;;;5086523;28;20024;-79
2022/10/23 05:58:31;;;;;;;0.00;0.00;;;;;;;;;;5091604;28;20034;-78
2022/10/23 06:00:58;;;;;;;1.55;0.15;;;;;;;;;;5114943;28;20055;-80
2022/10/23 06:03:24;;;;;;;0.00;0.00;;;;;;;;;;5096296;28;20036;-79
2022/10/23 06:05:51;;;;;;;0.20;0.10;;;;;;;;;;5113396;28;20093;-78
2022/10/23 06:08:17;;;;;;;0.00;0.00;;;;;;;;;;5102190;28;20027;-76
2022/10/23 06:10:44;;;;;;;0.08;0.08;;;;;;;;;;5076417;28;20569;-77
2022/10/23 06:13:10;;;;;;;0.00;0.00;;;;;;;;;;5108735;28;20068;-76
2022/10/23 06:15:37;;;;;;;1.35;1.00;;;;;;;;;;5113930;28;20024;-76
2022/10/23 06:18:04;;;;;;;0.15;0.15;;;;;;;;;;5095759;28;20031;-75
2022/10/23 06:20:30;;;;;;;0.00;0.00;;;;;;;;;;5095507;28;20381;-75
2022/10/23 06:22:56;;;;;;;0.43;0.43;;;;;;;;;;5088987;28;20028;-76
2022/10/23 06:25:23;;;;;;;1.70;1.67;;;;;;;;;;5110540;28;20593;-76
2022/10/23 06:27:50;;;;;;;0.10;0.10;;;;;;;;;;5111368;28;20560;-76
2022/10/23 06:30:16;;;;;;;0.00;0.00;;;;;;;;;;5096294;28;20036;-77
2022/10/23 06:32:43;;;;;;;3.72;3.53;;;;;;;;;;5110033;28;20019;-77
2022/10/23 06:35:09;;;;;;;0.00;0.00;;;;;;;;;;5106115;28;20028;-76
2022/10/23 06:37:35;;;;;;;0.75;0.75;;;;;;;;;;5107260;27;20028;-77
2022/10/23 06:40:02;;;;;;;1.23;1.23;;;;;;;;;;5091783;28;20066;-77
2022/10/23 06:42:31;;;;;;;0.00;0.00;;;;;;;;;;5111370;28;20086;-77
2022/10/23 06:44:57;;;;;;;0.00;0.00;;;;;;;;;;5104654;28;20039;-76
2022/10/23 06:47:24;;;;;;;0.00;0.00;;;;;;;;;;5111455;28;20039;-76
2022/10/23 06:49:50;;;;;;;0.52;0.52;;;;;;;;;;5122840;28;20027;-77
2022/10/23 06:52:16;;;;;;;0.00;0.00;;;;;;;;;;5088121;28;20059;-77
2022/10/23 06:54:42;;;;;;;0.00;0.00;;;8.70;99.90;;;;;;5104295;28;20016;-77
2022/10/23 06:57:08;;;;;;;1.20;0.38;;;8.50;99.90;;;;;;5108234;28;20107;-77
2022/10/23 06:59:35;;;;;;;0.20;0.20;;;8.50;99.90;;;;;;5075474;28;20039;-77
2022/10/23 07:02:01;;;;;;;0.20;0.20;;;8.50;99.90;;;;;;5094805;28;20039;-77
2022/10/23 07:04:27;;;;;;;0.00;0.00;;;8.60;99.90;;;;;;5100818;28;20031;-77
2022/10/23 07:06:56;;;;;;;0.75;0.75;;;8.70;99.90;;;;;;5097589;28;20032;-77
2022/10/23 07:09:23;;;;;;;0.52;0.52;;;8.70;99.90;;;;;;5114978;28;20356;-76
2022/10/23 07:11:49;;;;;;;0.60;0.60;;;8.20;99.90;;;;;;5085135;28;20077;-77
2022/10/23 07:14:15;;;;;;;0.75;0.75;;;8.70;99.90;;;;;;5107517;28;20024;-77
2022/10/23 07:16:41;;;;;;;0.55;0.22;;;8.80;99.90;;;;;;5109171;28;20052;-76
2022/10/23 07:19:08;;;;;;;2.00;1.85;;;8.80;99.90;;;;;;5089102;28;20085;-76
2022/10/23 07:21:34;;;;;;;1.85;1.75;;;8.90;99.90;;;;;;5120986;28;20072;-77
2022/10/23 07:24:02;;;;;;;0.13;0.13;;;8.90;99.90;;;;;;5102314;28;20089;-76
2022/10/23 07:26:28;;;;;;;1.67;0.82;;;8.60;99.90;;;;;;5102352;28;20100;-77
2022/10/23 07:28:54;;;;;;;0.13;0.13;;;8.60;99.90;;;;;;5095819;28;20065;-76
2022/10/23 07:31:22;;;;;;;0.05;0.05;;;8.80;99.90;;;;;;5107327;28;20035;-77
2022/10/23 07:33:49;;;;;;;0.00;0.00;;;8.60;99.90;;;;;;5100491;28;20128;-77
2022/10/23 07:36:15;;;;;;;0.00;0.00;;;8.50;99.90;;;;;;5113507;28;20027;-77
2022/10/23 07:38:41;;;;;;;1.27;0.55;;;8.50;99.90;;;;;;5112814;28;20107;-76
2022/10/23 07:41:07;;;;;;;0.85;0.85;;;8.40;99.90;;;;;;5112103;28;20024;-77
2022/10/23 07:43:34;;;;;;;0.00;0.00;;;8.30;99.90;;;;;;5111473;28;20194;-76
2022/10/23 07:46:00;;;;;;;9.43;3.95;;;8.70;99.90;;;;;;5093778;28;20063;-78
2022/10/23 07:48:27;;;;;;;2.10;1.35;;;8.40;99.90;;;;;;5126525;27;20026;-77
2022/10/23 07:50:57;;;;;;;0.30;0.30;;;8.40;99.90;;;;;;5108158;28;20024;-77
2022/10/23 07:53:24;;;;;;;0.03;0.03;;;8.40;99.90;;;;;;5108187;28;20052;-77
2022/10/23 07:56:01;;;;;;;0.00;0.00;;;8.40;99.90;;;;;;5096776;28;20449;-77
2022/10/23 07:58:28;;;;;;;0.13;0.13;;;8.60;99.90;;;;;;5112953;28;20050;-78
2022/10/23 08:01:03;;;;;;;0.00;0.00;;;8.50;99.90;;;;;;5110132;27;20050;-77
2022/10/23 08:03:31;;;;;;;2.92;2.67;;;8.50;99.90;;;;;;5117377;28;20027;-78
2022/10/23 08:05:58;;;;;;;0.00;0.00;;;8.60;99.90;;;;;;5101090;28;20032;-77
2022/10/23 08:08:25;;;;;;;13.02;11.68;;;8.60;99.90;;;;;;5114134;28;20024;-77
2022/10/23 08:10:53;;;;;;;0.40;0.40;;;8.50;99.90;;;;;;5102517;28;20027;-77
2022/10/23 08:13:20;;;;;;;0.00;0.00;;;8.50;99.90;;;;;;5117981;28;20087;-77
2022/10/23 08:15:48;;;;;;;0.82;0.82;;;8.60;99.90;;;;;;5108163;28;20475;-76
2022/10/23 08:18:14;;;;;;;0.00;0.00;;;8.50;99.90;;;;;;5130026;28;20024;-78
2022/10/23 08:20:46;;;;;;;0.70;0.55;;;8.30;99.90;;;;;;5128994;28;20491;-78
2022/10/23 08:23:17;;;;;;;0.08;0.05;;;8.30;99.90;;;;;;5125481;28;20027;-76
2022/10/23 08:25:44;;;;;;;4.45;2.70;;;8.50;99.90;;;;;;5098151;28;20059;-77
2022/10/23 08:28:10;;;;;;;0.00;0.00;;;8.50;99.90;;;;;;5114800;28;20023;-77
2022/10/23 08:30:37;;;;;;;2.08;1.98;;;8.70;99.90;;;;;;5085871;28;20481;-77
2022/10/23 08:33:04;;;;;;;0.00;0.00;;;8.80;99.90;;;;;;5116403;28;20032;-77
2022/10/23 08:35:34;;;;;;;1.88;1.77;;;;;;;;;;5116033;28;20110;-77
2022/10/23 08:38:01;;;;;;;1.75;0.22;;;;;;;;;;5078148;28;20035;-77
2022/10/23 08:40:27;;;;;;;3.15;2.13;;;8.80;99.90;;;;;;5088883;28;20032;-77
2022/10/23 08:43:17;;;;;;;0.43;0.43;;;8.90;99.90;;;;;;5082822;28;20051;-76
2022/10/23 08:45:46;;;;;;;0.75;0.75;;;;;;;;;;5083076;28;20122;-78
2022/10/23 08:48:15;;;;;;;0.43;0.43;;;;;;;;;;5109995;28;20064;-78
2022/10/23 08:50:50;;;;;;;0.03;0.03;;;;;;;;;;5106078;28;20077;-77
2022/10/23 08:53:23;;;;;;;1.25;1.17;;;;;;;;;;5077916;28;20023;-79
2022/10/23 08:55:57;;;;;;;0.60;0.60;;;;;;;;;;5097008;28;20394;-78
2022/10/23 08:58:30;;;;;;;1.75;1.38;;;;;;;;;;5091748;28;20466;-77
2022/10/23 09:00:57;;;;;;;6.20;3.58;;;;;;;;;;5109971;28;20478;-76
2022/10/23 09:03:23;;;;;;;0.65;0.65;;;;;;;;;;5103802;27;20098;-75
2022/10/23 09:06:54;;;;;;;0.98;0.98;;;8.80;99.90;;;;;;5124380;27;20039;-77
2022/10/23 09:09:32;;;;;;;6.90;4.47;;;9.30;99.90;;;;;;4984072;28;20037;-77
2022/10/23 09:12:16;;;;;;;4.28;3.20;;;;;;;;;;5010111;28;20116;-76
2022/10/23 09:15:02;;;;;;;8.00;5.53;;;;;;;;;;5089555;28;20024;-76
2022/10/23 09:17:37;;;;;;;7.55;5.45;;;8.70;99.90;;;;;;5107647;28;20102;-77
2022/10/23 09:20:20;;;;;;;5.53;3.08;;;8.60;99.90;;;;;;5115743;28;20507;-76
2022/10/23 09:22:53;;;;;;;4.65;3.22;;;9.10;99.90;;;;;;5112189;28;20023;-75
2022/10/23 09:25:27;;;;;;;4.75;3.17;;;8.70;99.90;;;;;;5099084;28;20024;-75
2022/10/23 09:27:57;;;;;;;13.65;5.65;;;8.60;99.90;;;;;;5128498;27;20015;-74
2022/10/23 09:30:36;;;;;;;19.42;12.55;;;8.50;99.90;;;;;;5117457;28;20380;-76
2022/10/23 09:33:14;;;;;;;18.77;10.93;;;8.20;99.90;;;;;;5108202;27;20028;-76
2022/10/23 09:35:53;;;;;;;8.57;7.70;;;;;;;;;;5100475;28;20055;-76
2022/10/23 09:39:00;;;;;;;16.15;10.63;;;8.30;99.90;;;;;;5112146;28;20031;-77
2022/10/23 09:41:30;;;;;;;15.75;7.65;;;;;;;;;;5049959;28;20063;-77
2022/10/23 09:44:18;;;;;;;20.30;9.70;;;;;;;;;;5090465;28;20043;-77
2022/10/23 09:46:52;;;;;;;5.40;3.35;;;8.20;99.90;;;;;;5095590;27;20028;-76
2022/10/23 09:49:25;;;;;;;19.23;11.27;;;8.10;99.90;;;;;;5098093;28;20020;-77
2022/10/23 09:52:11;;;;;;;21.00;11.25;;;8.10;99.90;;;;;;5094757;28;20488;-75
2022/10/23 09:54:49;;;;;;;21.95;11.50;;;8.20;99.90;;;;;;5084788;28;20052;-77
2022/10/23 09:57:42;;;;;;;15.77;10.20;;;8.10;99.90;;;;;;5112725;28;20016;-76
2022/10/23 10:00:19;;;;;;;18.75;11.63;;;8.00;99.90;;;;;;5106554;28;20024;-77
2022/10/23 10:02:56;;;;;;;15.77;9.38;;;8.30;99.90;;;;;;5090518;28;20024;-77
2022/10/23 10:05:25;;;;;;;8.15;5.72;;;8.10;99.90;;;;;;5093810;28;20020;-75
2022/10/23 10:08:25;;;;;;;16.70;11.13;;;8.10;99.90;;;;;;5084637;28;20107;-76
2022/10/23 10:11:00;;;;;;;8.07;5.57;;;8.10;99.90;;;;;;5112526;28;20024;-77
2022/10/23 10:13:32;;;;;;;19.67;8.05;;;8.30;99.90;;;;;;5104702;27;20024;-75
2022/10/23 10:16:10;;;;;;;14.18;9.27;;;8.10;99.90;;;;;;5101895;27;20119;-75
2022/10/23 10:18:47;;;;;;;15.13;7.50;;;8.10;99.90;;;;;;5118811;28;20028;-76
2022/10/23 10:21:24;;;;;;;26.58;12.32;;;8.00;99.90;;;;;;5115813;27;20048;-77
2022/10/23 10:24:03;;;;;;;8.43;7.10;;;8.10;99.90;;;;;;5113809;27;20663;-78
2022/10/23 10:26:50;;;;;;;9.80;7.93;;;;;;;;;;5118992;27;20042;-76
2022/10/23 10:29:22;;;;;;;5.00;3.88;;;;;;;;;;5090266;28;20093;-77
2022/10/23 10:32:10;;;;;;;16.55;4.60;;;8.10;99.90;;;;;;5100809;28;20103;-77
2022/10/23 10:34:49;;;;;;;14.30;7.03;;;8.00;99.90;;;;;;5092176;28;20051;-80
2022/10/23 10:37:32;;;;;;;18.83;10.15;;;8.00;99.90;;;;;;5102020;28;20020;-78
2022/10/23 10:40:17;;;;;;;12.30;7.65;;;;;;;;;;5099454;28;20335;-80
2022/10/23 10:42:57;;;;;;;13.20;7.32;;;;;;;;;;5075822;28;20494;-79
2022/10/23 10:45:32;;;;;;;10.88;7.50;;;;;;;;;;5094081;28;20154;-79
2022/10/23 10:48:11;;;;;;;15.63;9.77;;;;;;;;;;5099119;27;20551;-78
2022/10/23 10:50:43;;;;;;;17.30;6.95;;;;;;;;;;5097915;28;20026;-75
2022/10/23 10:53:09;;;;;;;10.85;6.53;;;;;;;;;;5087936;28;20028;-77
2022/10/23 10:55:41;;;;;;;17.38;8.07;;;;;;;;;;5111056;28;20053;-81
2022/10/23 10:58:10;;;;;;;18.48;9.02;;;;;;;;;;5082688;28;20032;-74
2022/10/23 11:00:36;;;;;;;10.43;4.25;;;;;;;;;;5092155;28;20462;-75
2022/10/23 11:03:15;;;;;;;4.75;2.70;;;;;;;;;;5099848;28;20042;-74
2022/10/23 11:05:43;;;;;;;14.85;7.05;;;;;;;;;;5095473;28;20173;-74
2022/10/23 11:08:09;;;;;;;13.52;7.20;;;;;;;;;;5095268;28;20378;-74
2022/10/23 11:10:38;;;;;;;21.67;11.35;;;;;;;;;;5090977;28;20377;-76
2022/10/23 11:13:05;;;;;;;15.73;8.38;;;;;;;;;;5101728;28;20385;-77
2022/10/23 11:15:38;;;;;;;9.18;6.88;;;;;;;;;;5081865;28;20070;-76
2022/10/23 11:18:11;;;;;;;7.47;4.22;;;;;;;;;;5093756;28;20036;-77
2022/10/23 11:20:55;;;;;;;4.90;4.47;;;;;;;;;;5093524;28;20051;-76
2022/10/23 11:23:25;;;;;;;13.82;8.95;;;;;;;;;;5093656;28;20107;-77
2022/10/23 11:26:06;;;;;;;3.55;3.20;;;;;;;;;;5098999;28;20032;-74
2022/10/23 11:28:40;;;;;;;10.25;4.95;;;;;;;;;;5097204;28;20427;-73
2022/10/23 11:31:11;;;;;;;16.77;7.13;;;;;;;;;;5109693;28;20136;-75
2022/10/23 11:33:50;;;;;;;12.57;7.40;;;;;;;;;;5093006;28;20031;-76
2022/10/23 11:36:20;;;;;;;9.73;7.15;;;;;;;;;;5098652;28;20069;-76
2022/10/23 11:38:57;;;;;;;10.52;7.60;;;;;;;;;;5075333;28;20115;-76
2022/10/23 11:41:25;;;;;;;16.40;8.20;;;;;;;;;;5088311;28;20031;-75
2022/10/23 11:43:54;;;;;;;19.25;7.63;;;;;;;;;;5104833;28;20509;-76
2022/10/23 11:46:24;;;;;;;4.38;3.65;;;;;;;;;;5092082;28;20035;-77
2022/10/23 11:48:51;;;;;;;10.93;4.53;;;;;;;;;;5096375;28;20024;-77
2022/10/23 11:51:27;;;;;;;13.77;7.43;;;;;;;;;;5113373;28;20390;-77
2022/10/23 11:54:05;;;;;;;16.80;10.13;;;;;;;;;;5090903;28;20028;-75
2022/10/23 11:56:32;;;;;;;12.90;7.90;;;;;;;;;;5088253;28;20126;-76
2022/10/23 11:59:17;;;;;;;15.77;7.70;;;;;;;;;;5099435;28;20095;-76
2022/10/23 12:01:44;;;;;;;11.10;5.28;;;;;;;;;;5096642;28;20493;-75
2022/10/23 12:04:13;;;;;;;13.52;6.70;;;;;;;;;;5113071;28;20027;-76
2022/10/23 12:06:47;;;;;;;3.97;3.65;;;;;;;;;;5088090;28;20055;-76
2022/10/23 12:09:32;;;;;;;5.28;3.95;;;;;;;;;;5095272;28;20096;-75
2022/10/23 12:12:14;;;;;;;7.35;2.40;;;;;;;;;;5129783;28;20015;-75
2022/10/23 12:14:50;;;;;;;1.90;1.75;;;;;;;;;;5133550;28;20023;-75
2022/10/23 12:17:25;;;;;;;2.42;2.22;;;;;;;;;;5101231;28;20107;-75
2022/10/23 12:19:55;;;;;;;0.08;0.08;;;;;;;;;;5094541;28;20462;-76
2022/10/23 12:22:25;;;;;;;2.88;2.20;;;;;;;;;;5106505;28;20043;-76
2022/10/23 12:24:57;;;;;;;5.78;4.25;;;;;;;;;;5084323;28;20475;-76
2022/10/23 12:27:28;;;;;;;0.65;0.65;;;;;;;;;;5110507;28;20031;-75
2022/10/23 12:29:55;;;;;;;3.63;3.03;;;;;;;;;;5104777;28;20016;-75
2022/10/23 12:32:43;;;;;;;3.00;2.15;;;;;;;;;;5114468;28;20024;-75
2022/10/23 12:35:10;;;;;;;0.80;0.80;;;;;;;;;;5116904;28;20039;-76
2022/10/23 12:37:55;;;;;;;10.55;5.47;;;;;;;;;;5098244;28;20016;-76
2022/10/23 12:40:28;;;;;;;1.27;1.15;;;;;;;;;;5098390;28;20028;-75
2022/10/23 12:42:55;;;;;;;4.22;3.58;;;;;;;;;;5097945;28;20043;-76
2022/10/23 12:45:29;;;;;;;0.22;0.22;;;;;;;;;;5116354;28;20044;-76
2022/10/23 12:47:56;;;;;;;3.70;2.67;;;;;;;;;;5116753;28;20022;-76
2022/10/23 12:50:22;;;;;;;0.10;0.10;;;;;;;;;;5116465;28;20023;-74
2022/10/23 12:53:07;;;;;;;1.60;1.45;;;;;;;;;;5116501;28;20047;-74
2022/10/23 12:56:05;;;;;;;5.18;2.38;;;;;;;;;;5116602;28;20030;-76
2022/10/23 12:58:33;;;;;;;7.25;3.50;;;;;;;;;;5060742;28;20036;-76
2022/10/23 13:01:01;;;;;;;6.57;3.20;;;;;;;;;;5098494;28;20027;-75
2022/10/23 13:03:28;;;;;;;3.03;2.72;;;;;;;;;;5097987;28;20622;-76
2022/10/23 13:05:57;;;;;;;2.17;2.03;;;;;;;;;;5106754;27;20107;-76
2022/10/23 13:08:28;;;;;;;5.22;4.72;;;;;;;;;;5099703;28;20017;-76
2022/10/23 13:10:54;;;;;;;1.38;1.10;;;;;;;;;;5084351;27;20111;-75
2022/10/23 13:13:22;;;;;;;5.13;3.55;;;;;;;;;;5118939;27;20019;-75
2022/10/23 13:15:49;;;;;;;0.10;0.10;;;;;;;;;;5097553;28;20032;-75
2022/10/23 13:18:16;;;;;;;2.03;1.67;;;;;;;;;;5095903;28;20477;-75
2022/10/23 13:21:04;;;;;;;1.13;0.95;;;;;;;;;;5109928;28;20354;-76
2022/10/23 13:23:31;;;;;;;0.20;0.20;;;;;;;;;;5096995;28;20035;-77
2022/10/23 13:26:02;;;;;;;0.13;0.13;;;;;;;;;;5096971;27;20115;-77
2022/10/23 13:28:31;;;;;;;1.80;1.70;;;;;;;;;;5113006;27;20486;-78
2022/10/23 13:31:23;;;;;;;4.95;2.28;;;;;;;;;;5132123;27;20114;-78
2022/10/23 13:33:58;;;;;;;1.30;1.30;;;;;;;;;;5103217;28;20054;-78
2022/10/23 13:36:26;;;;;;;9.75;8.85;;;;;;;;;;5111289;28;20047;-76
2022/10/23 13:38:58;;;;;;;4.93;4.60;;;7.50;99.90;;;;;;5097232;28;20032;-77
2022/10/23 13:41:34;;;;;;;0.35;0.35;;;7.50;99.90;;;;;;5112253;28;20019;-75
2022/10/23 13:44:01;;;;;;;9.00;5.60;;;;;;;;;;5091055;28;20045;-75
2022/10/23 13:46:28;;;;;;;6.10;5.57;;;7.20;99.90;;;;;;5108540;28;20036;-77
2022/10/23 13:48:54;;;;;;;6.72;6.18;;;7.10;99.90;;;;;;5104551;28;20020;-76
2022/10/23 13:51:33;;;;;;;1.33;1.25;;;7.10;99.90;;;;;;5108905;28;20027;-76
2022/10/23 13:53:59;;;;;;;14.18;12.00;;;7.40;99.90;;;;;;5110843;28;20066;-76
2022/10/23 13:56:29;;;;;;;14.60;13.55;;;14.40;99.90;;;;;;5105420;28;20027;-75
2022/10/23 13:58:56;;;;;;;4.97;4.60;;;;;;;;;;5106021;28;20019;-76
2022/10/23 14:01:42;;;;;;;6.10;5.57;;;20.20;99.90;;;;;;5101865;28;20024;-76
2022/10/23 14:04:10;;;;;;;11.30;10.75;;;21.60;99.90;;;;;;5106430;28;20032;-76
2022/10/23 14:06:37;;;;;;;15.77;11.93;;;21.80;99.90;;;;;;5091642;28;20601;-75
2022/10/23 14:09:09;;;;;;;3.95;3.75;;;21.80;99.90;;;;;;5086233;28;20035;-76
2022/10/23 14:11:35;;;;;;;3.55;3.35;;;21.80;99.90;;;;;;5106490;28;20065;-76
2022/10/23 14:14:01;;;;;;;4.13;3.20;;;21.80;99.90;;;;;;5109703;28;20011;-74
2022/10/23 14:16:28;;;;;;;5.40;3.70;;;21.80;99.90;;;;;;5092407;28;20412;-75
2022/10/23 14:18:54;;;;;;;5.03;4.82;;;21.90;99.90;;;;;;5100501;28;20028;-75
2022/10/23 14:21:22;;;;;;;5.38;2.45;;;21.90;99.90;;;;;;5108547;28;20031;-75
2022/10/23 14:23:49;;;;;;;5.28;4.82;;;21.80;99.90;;;;;;5107067;28;20051;-75
2022/10/23 14:26:19;;;;;;;6.57;6.32;;;21.60;99.90;;;;;;5112076;28;20088;-75
2022/10/23 14:28:46;;;;;;;0.00;0.00;;;21.60;99.90;;;;;;5111116;28;20040;-74